sensor_id;sensor_type;location;lat;lon;timestamp;pressure;altitude;pressure_sealevel;temperature;humidity
28354;BME280;15603;50.878;8.036;2023-03-07T00:02:00;143705.09;;;1.86;100.00
28354;BME280;15603;50.878;8.036;2023-03-07T00:04:27;143709.94;;;1.88;100.00
28354;BME280;15603;50.878;8.036;2023-03-07T00:06:55;143630.22;;;1.54;100.00
28354;BME280;15603;50.878;8.036;2023-03-07T00:09:22;143684.56;;;1.77;100.00
28354;BME280;15603;50.878;8.036;2023-03-07T00:11:49;143707.53;;;1.87;100.00
28354;BME280;15603;50.878;8.036;2023-03-07T00:14:16;143695.44;;;1.82;100.00
28354;BME280;15603;50.878;8.036;2023-03-07T00:16:43;143712.38;;;1.89;100.00
28354;BME280;15603;50.878;8.036;2023-03-07T00:19:11;143707.53;;;1.87;100.00
28354;BME280;15603;50.878;8.036;2023-03-07T00:21:38;143754.63;;;2.07;100.00
28354;BME280;15603;50.878;8.036;2023-03-07T00:24:05;143753.44;;;2.06;100.00
28354;BME280;15603;50.878;8.036;2023-03-07T00:26:32;143700.28;;;1.84;100.00
28354;BME280;15603;50.878;8.036;2023-03-07T00:29:06;143690.63;;;1.80;100.00
28354;BME280;15603;50.878;8.036;2023-03-07T00:31:34;143724.41;;;1.94;100.00
28354;BME280;15603;50.878;8.036;2023-03-07T00:34:02;143680.97;;;1.75;100.00
28354;BME280;15603;50.878;8.036;2023-03-07T00:36:29;143719.59;;;1.92;100.00
28354;BME280;15603;50.878;8.036;2023-03-07T00:38:57;143659.22;;;1.66;100.00
28354;BME280;15603;50.878;8.036;2023-03-07T00:41:26;143683.34;;;1.76;100.00
28354;BME280;15603;50.878;8.036;2023-03-07T00:43:54;143690.63;;;1.80;100.00
28354;BME280;15603;50.878;8.036;2023-03-07T00:46:23;143688.19;;;1.79;100.00
28354;BME280;15603;50.878;8.036;2023-03-07T00:48:50;143690.63;;;1.80;100.00
28354;BME280;15603;50.878;8.036;2023-03-07T00:51:18;143656.78;;;1.65;100.00
28354;BME280;15603;50.878;8.036;2023-03-07T00:53:46;143722.03;;;1.93;100.00
28354;BME280;15603;50.878;8.036;2023-03-07T00:56:21;143685.78;;;1.77;100.00
28354;BME280;15603;50.878;8.036;2023-03-07T00:58:50;143703.91;;;1.85;100.00
28354;BME280;15603;50.878;8.036;2023-03-07T01:01:23;143676.13;;;1.73;100.00
28354;BME280;15603;50.878;8.036;2023-03-07T01:03:51;143665.25;;;1.69;100.00
28354;BME280;15603;50.878;8.036;2023-03-07T01:06:25;143705.09;;;1.86;100.00
28354;BME280;15603;50.878;8.036;2023-03-07T01:08:57;143661.63;;;1.67;100.00
28354;BME280;15603;50.878;8.036;2023-03-07T01:11:26;143713.56;;;1.89;100.00
28354;BME280;15603;50.878;8.036;2023-03-07T01:13:56;143674.91;;;1.73;100.00
28354;BME280;15603;50.878;8.036;2023-03-07T01:16:26;143661.63;;;1.67;100.00
28354;BME280;15603;50.878;8.036;2023-03-07T01:18:55;143685.78;;;1.77;100.00
28354;BME280;15603;50.878;8.036;2023-03-07T01:21:26;143708.72;;;1.87;100.00
28354;BME280;15603;50.878;8.036;2023-03-07T01:23:55;143683.34;;;1.76;100.00
28354;BME280;15603;50.878;8.036;2023-03-07T01:26:26;143696.66;;;1.82;100.00
28354;BME280;15603;50.878;8.036;2023-03-07T01:28:56;143651.97;;;1.63;100.00
28354;BME280;15603;50.878;8.036;2023-03-07T01:31:24;143664.03;;;1.68;100.00
28354;BME280;15603;50.878;8.036;2023-03-07T01:33:52;143650.75;;;1.63;100.00
28354;BME280;15603;50.878;8.036;2023-03-07T01:36:26;143648.31;;;1.62;100.00
28354;BME280;15603;50.878;8.036;2023-03-07T01:39:05;143693.00;;;1.81;100.00
28354;BME280;15603;50.878;8.036;2023-03-07T01:41:36;143679.72;;;1.75;100.00
28354;BME280;15603;50.878;8.036;2023-03-07T01:44:21;143687.00;;;1.78;100.00
28354;BME280;15603;50.878;8.036;2023-03-07T01:46:50;143700.28;;;1.84;100.00
28354;BME280;15603;50.878;8.036;2023-03-07T01:49:31;143671.31;;;1.71;100.00
28354;BME280;15603;50.878;8.036;2023-03-07T01:52:10;143690.63;;;1.80;100.00
28354;BME280;15603;50.878;8.036;2023-03-07T01:54:50;143671.31;;;1.71;100.00
28354;BME280;15603;50.878;8.036;2023-03-07T01:57:26;143687.00;;;1.78;100.00
28354;BME280;15603;50.878;8.036;2023-03-07T01:59:58;143691.81;;;1.80;100.00
28354;BME280;15603;50.878;8.036;2023-03-07T02:02:26;143709.94;;;1.88;100.00
28354;BME280;15603;50.878;8.036;2023-03-07T02:05:19;143688.19;;;1.79;100.00
28354;BME280;15603;50.878;8.036;2023-03-07T02:07:48;143708.72;;;1.87;100.00
28354;BME280;15603;50.878;8.036;2023-03-07T02:10:20;143724.41;;;1.94;100.00
28354;BME280;15603;50.878;8.036;2023-03-07T02:12:49;143712.38;;;1.89;100.00
28354;BME280;15603;50.878;8.036;2023-03-07T02:15:17;143708.72;;;1.87;100.00
28354;BME280;15603;50.878;8.036;2023-03-07T02:17:45;143645.94;;;1.61;100.00
28354;BME280;15603;50.878;8.036;2023-03-07T02:23:28;143697.84;;;1.83;100.00
28354;BME280;15603;50.878;8.036;2023-03-07T02:26:37;143701.47;;;1.84;100.00
28354;BME280;15603;50.878;8.036;2023-03-07T02:29:01;143717.19;;;1.91;100.00
28354;BME280;15603;50.878;8.036;2023-03-07T02:31:30;143676.13;;;1.73;100.00
28354;BME280;15603;50.878;8.036;2023-03-07T02:33:57;143690.63;;;1.80;100.00
28354;BME280;15603;50.878;8.036;2023-03-07T02:36:29;143714.75;;;1.90;100.00
28354;BME280;15603;50.878;8.036;2023-03-07T02:39:07;143684.56;;;1.77;100.00
28354;BME280;15603;50.878;8.036;2023-03-07T02:41:36;143668.88;;;1.70;100.00
28354;BME280;15603;50.878;8.036;2023-03-07T02:44:10;143693.00;;;1.81;100.00
28354;BME280;15603;50.878;8.036;2023-03-07T02:46:37;143642.31;;;1.59;100.00
28354;BME280;15603;50.878;8.036;2023-03-07T02:49:05;143688.19;;;1.79;100.00
28354;BME280;15603;50.878;8.036;2023-03-07T02:51:32;143689.44;;;1.79;100.00
28354;BME280;15603;50.878;8.036;2023-03-07T02:53:59;143664.03;;;1.68;100.00
28354;BME280;15603;50.878;8.036;2023-03-07T02:56:26;143649.56;;;1.62;100.00
28354;BME280;15603;50.878;8.036;2023-03-07T02:58:53;143680.97;;;1.75;100.00
28354;BME280;15603;50.878;8.036;2023-03-07T03:01:21;143680.97;;;1.75;100.00
28354;BME280;15603;50.878;8.036;2023-03-07T03:03:48;143682.16;;;1.76;100.00
28354;BME280;15603;50.878;8.036;2023-03-07T03:06:15;143664.03;;;1.68;100.00
28354;BME280;15603;50.878;8.036;2023-03-07T03:08:42;143659.22;;;1.66;100.00
28354;BME280;15603;50.878;8.036;2023-03-07T03:11:09;143683.34;;;1.76;100.00
28354;BME280;15603;50.878;8.036;2023-03-07T03:13:36;143689.44;;;1.79;100.00
28354;BME280;15603;50.878;8.036;2023-03-07T03:16:06;143705.09;;;1.86;100.00
28354;BME280;15603;50.878;8.036;2023-03-07T03:18:33;143693.00;;;1.81;100.00
28354;BME280;15603;50.878;8.036;2023-03-07T03:21:06;143664.03;;;1.68;100.00
28354;BME280;15603;50.878;8.036;2023-03-07T03:23:33;143676.13;;;1.73;100.00
28354;BME280;15603;50.878;8.036;2023-03-07T03:26:03;143685.78;;;1.77;100.00
28354;BME280;15603;50.878;8.036;2023-03-07T03:28:34;143654.41;;;1.64;100.00
28354;BME280;15603;50.878;8.036;2023-03-07T03:31:04;143632.66;;;1.55;100.00
28354;BME280;15603;50.878;8.036;2023-03-07T03:33:32;143650.75;;;1.63;100.00
28354;BME280;15603;50.878;8.036;2023-03-07T03:36:05;143626.63;;;1.52;100.00
28354;BME280;15603;50.878;8.036;2023-03-07T03:38:33;143614.53;;;1.47;100.00
28354;BME280;15603;50.878;8.036;2023-03-07T03:41:10;143673.69;;;1.72;100.00
28354;BME280;15603;50.878;8.036;2023-03-07T03:43:38;143685.78;;;1.77;100.00
28354;BME280;15603;50.878;8.036;2023-03-07T03:46:05;143660.41;;;1.67;100.00
28354;BME280;15603;50.878;8.036;2023-03-07T03:48:32;143662.84;;;1.68;100.00
28354;BME280;15603;50.878;8.036;2023-03-07T03:53:32;143659.22;;;1.66;100.00
28354;BME280;15603;50.878;8.036;2023-03-07T03:56:11;143666.44;;;1.69;100.00
28354;BME280;15603;50.878;8.036;2023-03-07T03:58:39;143671.31;;;1.71;100.00
28354;BME280;15603;50.878;8.036;2023-03-07T04:01:09;143594.00;;;1.38;100.00
28354;BME280;15603;50.878;8.036;2023-03-07T04:03:42;143690.63;;;1.80;100.00
28354;BME280;15603;50.878;8.036;2023-03-07T04:06:12;143690.63;;;1.80;100.00
28354;BME280;15603;50.878;8.036;2023-03-07T04:08:40;143688.19;;;1.79;100.00
28354;BME280;15603;50.878;8.036;2023-03-07T04:11:07;143664.03;;;1.68;100.00
28354;BME280;15603;50.878;8.036;2023-03-07T04:13:35;143700.28;;;1.84;100.00
28354;BME280;15603;50.878;8.036;2023-03-07T04:16:03;143688.19;;;1.79;100.00
28354;BME280;15603;50.878;8.036;2023-03-07T04:18:30;143661.63;;;1.67;100.00
28354;BME280;15603;50.878;8.036;2023-03-07T04:20:57;143695.44;;;1.82;100.00
28354;BME280;15603;50.878;8.036;2023-03-07T04:23:26;143691.81;;;1.80;100.00
28354;BME280;15603;50.878;8.036;2023-03-07T04:25:58;143676.13;;;1.73;100.00
28354;BME280;15603;50.878;8.036;2023-03-07T04:28:29;143685.78;;;1.77;100.00
28354;BME280;15603;50.878;8.036;2023-03-07T04:31:21;143683.34;;;1.76;100.00
28354;BME280;15603;50.878;8.036;2023-03-07T04:33:50;143684.56;;;1.77;100.00
28354;BME280;15603;50.878;8.036;2023-03-07T04:36:18;143688.19;;;1.79;100.00
28354;BME280;15603;50.878;8.036;2023-03-07T04:38:47;143687.00;;;1.78;100.00
28354;BME280;15603;50.878;8.036;2023-03-07T04:41:20;143700.28;;;1.84;100.00
28354;BME280;15603;50.878;8.036;2023-03-07T04:43:50;143687.00;;;1.78;100.00
28354;BME280;15603;50.878;8.036;2023-03-07T04:46:18;143631.47;;;1.54;100.00
28354;BME280;15603;50.878;8.036;2023-03-07T04:48:45;143687.00;;;1.78;100.00
28354;BME280;15603;50.878;8.036;2023-03-07T04:51:13;143690.63;;;1.80;100.00
28354;BME280;15603;50.878;8.036;2023-03-07T04:53:40;143664.03;;;1.68;100.00
28354;BME280;15603;50.878;8.036;2023-03-07T04:56:08;143666.44;;;1.69;100.00
28354;BME280;15603;50.878;8.036;2023-03-07T04:58:37;143685.78;;;1.77;100.00
28354;BME280;15603;50.878;8.036;2023-03-07T05:01:04;143713.56;;;1.89;100.00
28354;BME280;15603;50.878;8.036;2023-03-07T05:03:32;143738.91;;;2.00;100.00
28354;BME280;15603;50.878;8.036;2023-03-07T05:06:09;143699.06;;;1.83;100.00
28354;BME280;15603;50.878;8.036;2023-03-07T05:08:36;143683.34;;;1.76;100.00
28354;BME280;15603;50.878;8.036;2023-03-07T05:11:03;143656.78;;;1.65;100.00
28354;BME280;15603;50.878;8.036;2023-03-07T05:13:32;143680.97;;;1.75;100.00
28354;BME280;15603;50.878;8.036;2023-03-07T05:15:59;143744.97;;;2.03;100.00
28354;BME280;15603;50.878;8.036;2023-03-07T05:18:28;143738.91;;;2.00;100.00
28354;BME280;15603;50.878;8.036;2023-03-07T05:20:57;143713.56;;;1.89;100.00
28354;BME280;15603;50.878;8.036;2023-03-07T05:23:24;143732.88;;;1.98;100.00
28354;BME280;15603;50.878;8.036;2023-03-07T05:25:52;143729.25;;;1.96;100.00
28354;BME280;15603;50.878;8.036;2023-03-07T05:28:20;143737.69;;;2.00;100.00
28354;BME280;15603;50.878;8.036;2023-03-07T05:30:47;143744.97;;;2.03;100.00
28354;BME280;15603;50.878;8.036;2023-03-07T05:33:14;143760.63;;;2.09;100.00
28354;BME280;15603;50.878;8.036;2023-03-07T05:35:42;143772.75;;;2.14;100.00
28354;BME280;15603;50.878;8.036;2023-03-07T05:38:11;143773.94;;;2.15;100.00
28354;BME280;15603;50.878;8.036;2023-03-07T05:40:38;143767.91;;;2.12;100.00
28354;BME280;15603;50.878;8.036;2023-03-07T05:43:07;143760.63;;;2.09;100.00
28354;BME280;15603;50.878;8.036;2023-03-07T05:45:34;143787.22;;;2.21;100.00
28354;BME280;15603;50.878;8.036;2023-03-07T05:48:01;143784.84;;;2.20;100.00
28354;BME280;15603;50.878;8.036;2023-03-07T05:50:29;143763.09;;;2.10;100.00
28354;BME280;15603;50.878;8.036;2023-03-07T05:52:58;143793.25;;;2.23;100.00
28354;BME280;15603;50.878;8.036;2023-03-07T05:55:28;143744.97;;;2.03;100.00
28354;BME280;15603;50.878;8.036;2023-03-07T05:57:55;143792.06;;;2.23;100.00
28354;BME280;15603;50.878;8.036;2023-03-07T06:00:22;143763.09;;;2.10;100.00
28354;BME280;15603;50.878;8.036;2023-03-07T06:03:00;143758.25;;;2.08;100.00
28354;BME280;15603;50.878;8.036;2023-03-07T06:05:29;143753.44;;;2.06;100.00
28354;BME280;15603;50.878;8.036;2023-03-07T06:07:56;143765.47;;;2.11;100.00
28354;BME280;15603;50.878;8.036;2023-03-07T06:10:24;143758.25;;;2.08;100.00
28354;BME280;15603;50.878;8.036;2023-03-07T06:12:52;143793.25;;;2.23;100.00
28354;BME280;15603;50.878;8.036;2023-03-07T06:15:20;143800.50;;;2.26;100.00
28354;BME280;15603;50.878;8.036;2023-03-07T06:17:53;143825.91;;;2.37;100.00
28354;BME280;15603;50.878;8.036;2023-03-07T06:20:20;143750.97;;;2.05;100.00
28354;BME280;15603;50.878;8.036;2023-03-07T06:22:48;143842.78;;;2.44;100.00
28354;BME280;15603;50.878;8.036;2023-03-07T06:25:15;143840.38;;;2.43;100.00
28354;BME280;15603;50.878;8.036;2023-03-07T06:27:43;143816.25;;;2.33;100.00
28354;BME280;15603;50.878;8.036;2023-03-07T06:30:11;143792.06;;;2.23;100.00
28354;BME280;15603;50.878;8.036;2023-03-07T06:32:39;143810.16;;;2.30;100.00
28354;BME280;15603;50.878;8.036;2023-03-07T06:35:07;143816.25;;;2.33;100.00
28354;BME280;15603;50.878;8.036;2023-03-07T06:37:35;143787.22;;;2.21;100.00
28354;BME280;15603;50.878;8.036;2023-03-07T06:40:02;143804.16;;;2.28;100.00
28354;BME280;15603;50.878;8.036;2023-03-07T06:42:34;143777.56;;;2.16;100.00
28354;BME280;15603;50.878;8.036;2023-03-07T06:45:02;143741.34;;;2.01;100.00
28354;BME280;15603;50.878;8.036;2023-03-07T06:47:29;143671.31;;;1.71;100.00
28354;BME280;15603;50.878;8.036;2023-03-07T06:49:56;143799.31;;;2.26;100.00
28354;BME280;15603;50.878;8.036;2023-03-07T06:52:23;143808.97;;;2.30;100.00
28354;BME280;15603;50.878;8.036;2023-03-07T06:54:51;143810.16;;;2.30;100.00
28354;BME280;15603;50.878;8.036;2023-03-07T06:57:18;143782.41;;;2.19;100.00
28354;BME280;15603;50.878;8.036;2023-03-07T06:59:45;143788.41;;;2.21;100.00
28354;BME280;15603;50.878;8.036;2023-03-07T07:02:13;143792.06;;;2.23;100.00
28354;BME280;15603;50.878;8.036;2023-03-07T07:04:41;143801.72;;;2.27;100.00
28354;BME280;15603;50.878;8.036;2023-03-07T07:07:08;143794.50;;;2.24;100.00
28354;BME280;15603;50.878;8.036;2023-03-07T07:09:35;143776.38;;;2.16;100.00
28354;BME280;15603;50.878;8.036;2023-03-07T07:12:02;143828.28;;;2.38;100.00
28354;BME280;15603;50.878;8.036;2023-03-07T07:14:33;143864.53;;;2.53;100.00
28354;BME280;15603;50.878;8.036;2023-03-07T07:17:00;143847.63;;;2.46;100.00
28354;BME280;15603;50.878;8.036;2023-03-07T07:19:28;143882.66;;;2.61;100.00
28354;BME280;15603;50.878;8.036;2023-03-07T07:21:56;143922.56;;;2.78;100.00
28354;BME280;15603;50.878;8.036;2023-03-07T07:24:24;143920.13;;;2.77;100.00
28354;BME280;15603;50.878;8.036;2023-03-07T07:26:53;143926.19;;;2.80;100.00
28354;BME280;15603;50.878;8.036;2023-03-07T07:29:22;143937.03;;;2.84;100.00
28354;BME280;15603;50.878;8.036;2023-03-07T07:31:50;143934.66;;;2.83;100.00
28354;BME280;15603;50.878;8.036;2023-03-07T07:34:18;143920.13;;;2.77;100.00
28354;BME280;15603;50.878;8.036;2023-03-07T07:36:46;143938.25;;;2.85;100.00
28354;BME280;15603;50.878;8.036;2023-03-07T07:39:14;143908.06;;;2.72;100.00
28354;BME280;15603;50.878;8.036;2023-03-07T07:41:43;143911.69;;;2.73;100.00
28354;BME280;15603;50.878;8.036;2023-03-07T07:44:12;143951.53;;;2.90;100.00
28354;BME280;15603;50.878;8.036;2023-03-07T07:46:51;143903.22;;;2.70;100.00
28354;BME280;15603;50.878;8.036;2023-03-07T07:49:18;143973.31;;;3.00;100.00
28354;BME280;15603;50.878;8.036;2023-03-07T07:51:45;143986.59;;;3.05;100.00
28354;BME280;15603;50.878;8.036;2023-03-07T07:54:12;143961.25;;;2.94;100.00
28354;BME280;15603;50.878;8.036;2023-03-07T07:56:40;143949.13;;;2.89;100.00
28354;BME280;15603;50.878;8.036;2023-03-07T07:59:07;143991.44;;;3.07;100.00
28354;BME280;15603;50.878;8.036;2023-03-07T08:01:34;144025.31;;;3.22;100.00
28354;BME280;15603;50.878;8.036;2023-03-07T08:04:01;144026.50;;;3.22;100.00
28354;BME280;15603;50.878;8.036;2023-03-07T08:06:29;144060.34;;;3.37;100.00
28354;BME280;15603;50.878;8.036;2023-03-07T08:08:56;144013.19;;;3.17;100.00
28354;BME280;15603;50.878;8.036;2023-03-07T08:11:25;144026.50;;;3.22;100.00
28354;BME280;15603;50.878;8.036;2023-03-07T08:13:53;144048.28;;;3.31;100.00
28354;BME280;15603;50.878;8.036;2023-03-07T08:16:21;144055.50;;;3.34;100.00
28354;BME280;15603;50.878;8.036;2023-03-07T08:18:53;144033.78;;;3.25;100.00
28354;BME280;15603;50.878;8.036;2023-03-07T08:21:23;144047.03;;;3.31;100.00
28354;BME280;15603;50.878;8.036;2023-03-07T08:23:52;144103.88;;;3.55;100.00
28354;BME280;15603;50.878;8.036;2023-03-07T08:26:19;144089.38;;;3.49;100.00
28354;BME280;15603;50.878;8.036;2023-03-07T08:28:47;144102.69;;;3.54;100.00
28354;BME280;15603;50.878;8.036;2023-03-07T08:31:19;144084.53;;;3.47;100.00
28354;BME280;15603;50.878;8.036;2023-03-07T08:33:49;144065.16;;;3.39;100.00
28354;BME280;15603;50.878;8.036;2023-03-07T08:36:17;144056.75;;;3.35;100.00
28354;BME280;15603;50.878;8.036;2023-03-07T08:38:48;144043.44;;;3.29;100.00
28354;BME280;15603;50.878;8.036;2023-03-07T08:41:18;144056.75;;;3.35;100.00
28354;BME280;15603;50.878;8.036;2023-03-07T08:43:46;144062.78;;;3.38;100.00
28354;BME280;15603;50.878;8.036;2023-03-07T08:46:13;144047.03;;;3.31;100.00
28354;BME280;15603;50.878;8.036;2023-03-07T08:48:40;143969.66;;;2.98;100.00
28354;BME280;15603;50.878;8.036;2023-03-07T08:51:10;144065.16;;;3.39;100.00
28354;BME280;15603;50.878;8.036;2023-03-07T08:53:37;144103.88;;;3.55;100.00
28354;BME280;15603;50.878;8.036;2023-03-07T08:56:06;144111.16;;;3.58;100.00
28354;BME280;15603;50.878;8.036;2023-03-07T08:58:33;144026.50;;;3.22;100.00
28354;BME280;15603;50.878;8.036;2023-03-07T09:01:01;144009.56;;;3.15;100.00
28354;BME280;15603;50.878;8.036;2023-03-07T09:03:29;144084.53;;;3.47;100.00
28354;BME280;15603;50.878;8.036;2023-03-07T09:05:56;144099.03;;;3.53;100.00
28354;BME280;15603;50.878;8.036;2023-03-07T09:08:23;144107.50;;;3.57;100.00
28354;BME280;15603;50.878;8.036;2023-03-07T09:10:50;144070.03;;;3.41;100.00
28354;BME280;15603;50.878;8.036;2023-03-07T09:13:17;144096.59;;;3.52;100.00
28354;BME280;15603;50.878;8.036;2023-03-07T09:15:45;144129.28;;;3.66;100.00
28354;BME280;15603;50.878;8.036;2023-03-07T09:18:12;144140.16;;;3.70;100.00
28354;BME280;15603;50.878;8.036;2023-03-07T09:20:39;144152.25;;;3.76;100.00
28354;BME280;15603;50.878;8.036;2023-03-07T09:23:07;144193.38;;;3.93;100.00
28354;BME280;15603;50.878;8.036;2023-03-07T09:25:35;144207.88;;;3.99;100.00
28354;BME280;15603;50.878;8.036;2023-03-07T09:28:02;144207.88;;;3.99;100.00
28354;BME280;15603;50.878;8.036;2023-03-07T09:30:30;144195.78;;;3.94;100.00
28354;BME280;15603;50.878;8.036;2023-03-07T09:32:57;144223.59;;;4.06;100.00
28354;BME280;15603;50.878;8.036;2023-03-07T09:35:24;144211.53;;;4.01;100.00
28354;BME280;15603;50.878;8.036;2023-03-07T09:37:51;144182.47;;;3.88;100.00
28354;BME280;15603;50.878;8.036;2023-03-07T09:40:21;144155.84;;;3.77;100.00
28354;BME280;15603;50.878;8.036;2023-03-07T09:43:09;144142.59;;;3.71;100.00
28354;BME280;15603;50.878;8.036;2023-03-07T09:46:11;144134.13;;;3.68;100.00
28354;BME280;15603;50.878;8.036;2023-03-07T09:48:51;144154.66;;;3.77;100.00
28354;BME280;15603;50.878;8.036;2023-03-07T09:51:38;144161.94;;;3.80;100.00
28354;BME280;15603;50.878;8.036;2023-03-07T09:54:19;144163.13;;;3.80;100.00
28354;BME280;15603;50.878;8.036;2023-03-07T09:56:48;144174.00;;;3.85;100.00
28354;BME280;15603;50.878;8.036;2023-03-07T09:59:38;144186.09;;;3.90;100.00
28354;BME280;15603;50.878;8.036;2023-03-07T10:02:27;144165.56;;;3.81;100.00
28354;BME280;15603;50.878;8.036;2023-03-07T10:05:20;144167.97;;;3.82;100.00
28354;BME280;15603;50.878;8.036;2023-03-07T10:07:51;144164.31;;;3.81;100.00
28354;BME280;15603;50.878;8.036;2023-03-07T10:10:36;144181.28;;;3.88;100.00
28354;BME280;15603;50.878;8.036;2023-03-07T10:13:16;144212.72;;;4.01;100.00
28354;BME280;15603;50.878;8.036;2023-03-07T10:15:55;144190.94;;;3.92;100.00
28354;BME280;15603;50.878;8.036;2023-03-07T10:18:45;144203.06;;;3.97;100.00
28354;BME280;15603;50.878;8.036;2023-03-07T10:21:45;144263.53;;;4.23;100.00
28354;BME280;15603;50.878;8.036;2023-03-07T10:24:37;144207.88;;;3.99;100.00
28354;BME280;15603;50.878;8.036;2023-03-07T10:27:11;144236.91;;;4.11;100.00
28354;BME280;15603;50.878;8.036;2023-03-07T10:29:47;144256.28;;;4.20;100.00
28354;BME280;15603;50.878;8.036;2023-03-07T10:32:33;144287.75;;;4.33;100.00
28354;BME280;15603;50.878;8.036;2023-03-07T10:35:20;144291.34;;;4.35;100.00
28354;BME280;15603;50.878;8.036;2023-03-07T10:40:57;144343.41;;;4.57;100.00
28354;BME280;15603;50.878;8.036;2023-03-07T10:43:30;144363.94;;;4.65;100.00
28354;BME280;15603;50.878;8.036;2023-03-07T10:54:33;144354.28;;;4.61;100.00
28354;BME280;15603;50.878;8.036;2023-03-07T10:57:03;144327.66;;;4.50;100.00
28354;BME280;15603;50.878;8.036;2023-03-07T10:59:31;144339.75;;;4.55;100.00
28354;BME280;15603;50.878;8.036;2023-03-07T11:02:01;144399.06;;;4.80;100.00
28354;BME280;15603;50.878;8.036;2023-03-07T11:04:41;144336.13;;;4.53;100.00
28354;BME280;15603;50.878;8.036;2023-03-07T11:07:24;144365.19;;;4.66;100.00
28354;BME280;15603;50.878;8.036;2023-03-07T11:09:55;144360.34;;;4.64;100.00
28354;BME280;15603;50.878;8.036;2023-03-07T11:12:24;144301.00;;;4.39;100.00
28354;BME280;15603;50.878;8.036;2023-03-07T11:15:08;144362.75;;;4.65;100.00
28354;BME280;15603;50.878;8.036;2023-03-07T11:17:43;144351.88;;;4.60;100.00
28354;BME280;15603;50.878;8.036;2023-03-07T11:20:28;144377.25;;;4.71;100.00
28354;BME280;15603;50.878;8.036;2023-03-07T11:23:27;144434.16;;;4.95;100.00
28354;BME280;15603;50.878;8.036;2023-03-07T11:26:16;144418.41;;;4.88;100.00
28354;BME280;15603;50.878;8.036;2023-03-07T11:29:11;144362.75;;;4.65;100.00
28354;BME280;15603;50.878;8.036;2023-03-07T11:34:34;144149.81;;;3.74;100.00
28354;BME280;15603;50.878;8.036;2023-03-07T11:37:32;144338.56;;;4.55;100.00
28354;BME280;15603;50.878;8.036;2023-03-07T11:40:40;144340.97;;;4.56;100.00
28354;BME280;15603;50.878;8.036;2023-03-07T11:56:54;144386.94;;;4.75;100.00
28354;BME280;15603;50.878;8.036;2023-03-07T11:59:33;144396.66;;;4.79;100.00
28354;BME280;15603;50.878;8.036;2023-03-07T12:02:34;144464.41;;;5.08;100.00
28354;BME280;15603;50.878;8.036;2023-03-07T12:05:31;144394.22;;;4.78;100.00
28354;BME280;15603;50.878;8.036;2023-03-07T12:14:01;144452.34;;;5.03;100.00
28354;BME280;15603;50.878;8.036;2023-03-07T12:25:21;144447.50;;;5.01;100.00
28354;BME280;15603;50.878;8.036;2023-03-07T12:28:02;144474.13;;;5.12;100.00
28354;BME280;15603;50.878;8.036;2023-03-07T12:31:04;144498.31;;;5.22;100.00
28354;BME280;15603;50.878;8.036;2023-03-07T12:39:16;144466.84;;;5.09;100.00
28354;BME280;15603;50.878;8.036;2023-03-07T12:44:55;144452.34;;;5.03;100.00
28354;BME280;15603;50.878;8.036;2023-03-07T12:47:46;144474.13;;;5.12;100.00
28354;BME280;15603;50.878;8.036;2023-03-07T12:50:25;144453.53;;;5.03;100.00
28354;BME280;15603;50.878;8.036;2023-03-07T12:55:45;144454.72;;;5.04;100.00
28354;BME280;15603;50.878;8.036;2023-03-07T12:58:20;144430.53;;;4.94;100.00
28354;BME280;15603;50.878;8.036;2023-03-07T13:00:56;144379.69;;;4.72;100.00
28354;BME280;15603;50.878;8.036;2023-03-07T13:06:21;144445.06;;;5.00;100.00
28354;BME280;15603;50.878;8.036;2023-03-07T13:08:55;144445.06;;;5.00;100.00
28354;BME280;15603;50.878;8.036;2023-03-07T13:11:26;144465.66;;;5.08;100.00
28354;BME280;15603;50.878;8.036;2023-03-07T13:14:01;144474.13;;;5.12;100.00
28354;BME280;15603;50.878;8.036;2023-03-07T13:16:40;144460.81;;;5.06;100.00
28354;BME280;15603;50.878;8.036;2023-03-07T13:24:43;144500.72;;;5.23;100.00
28354;BME280;15603;50.878;8.036;2023-03-07T13:27:15;144521.34;;;5.32;100.00
28354;BME280;15603;50.878;8.036;2023-03-07T13:37:59;144518.88;;;5.31;100.00
28354;BME280;15603;50.878;8.036;2023-03-07T13:43:00;144498.31;;;5.22;100.00
28354;BME280;15603;50.878;8.036;2023-03-07T13:48:11;144466.84;;;5.09;100.00
28354;BME280;15603;50.878;8.036;2023-03-07T13:53:45;144469.28;;;5.10;100.00
28354;BME280;15603;50.878;8.036;2023-03-07T13:58:59;144411.19;;;4.85;100.00
28354;BME280;15603;50.878;8.036;2023-03-07T14:01:35;144432.97;;;4.95;100.00
28354;BME280;15603;50.878;8.036;2023-03-07T14:04:22;144406.34;;;4.83;100.00
28354;BME280;15603;50.878;8.036;2023-03-07T14:07:19;144422.06;;;4.90;100.00
28354;BME280;15603;50.878;8.036;2023-03-07T14:09:53;144428.09;;;4.92;100.00
28354;BME280;15603;50.878;8.036;2023-03-07T14:21:39;144442.66;;;4.99;100.00
28354;BME280;15603;50.878;8.036;2023-03-07T14:24:28;144445.06;;;5.00;100.00
28354;BME280;15603;50.878;8.036;2023-03-07T14:27:01;144437.81;;;4.97;100.00
28354;BME280;15603;50.878;8.036;2023-03-07T14:29:29;144430.53;;;4.94;100.00
28354;BME280;15603;50.878;8.036;2023-03-07T14:31:58;144451.13;;;5.02;100.00
28354;BME280;15603;50.878;8.036;2023-03-07T14:34:28;144402.69;;;4.82;100.00
28354;BME280;15603;50.878;8.036;2023-03-07T14:36:58;144430.53;;;4.94;100.00
28354;BME280;15603;50.878;8.036;2023-03-07T14:45:30;144437.81;;;4.97;100.00
28354;BME280;15603;50.878;8.036;2023-03-07T14:50:41;144406.34;;;4.83;100.00
28354;BME280;15603;50.878;8.036;2023-03-07T14:53:15;144386.94;;;4.75;100.00
28354;BME280;15603;50.878;8.036;2023-03-07T14:55:46;144307.09;;;4.41;100.00
28354;BME280;15603;50.878;8.036;2023-03-07T14:58:27;144408.72;;;4.84;100.00
28354;BME280;15603;50.878;8.036;2023-03-07T15:00:59;144402.69;;;4.82;100.00